www.nordhorn-wetter.com
Wetterdaten: aktuell Dienstag, 01.09.2026 23:11
Datum Zeit Temp. A. BodenT -5cm Temp +10cm Extra Temp Feuchte A. BlattFeuchte Bod.Feu -5cm Luftdruck Regen Wind Richtung Richtung Sonnenschein ET UV Solar Taupunkt Windböen Empfang
01.09.2026 23:11 13,1 °C 0,0 °C 20,0 °C 19,0 °C 92 % 0 lf 33 cb 1019,5 hPa 0,0 mm 0,0 km/h (0 Bft) W-NW 301 ° 0 min 0,000 mm 0,0 UV-I 0 W/m² 11,8 °C 0,0 km/h (0 Bft) 95,65 %
01.09.2026 22:11 13,9 °C 0,0 °C 20,0 °C 19,0 °C 90 % 0 lf 33 cb 1019,0 hPa 0,0 mm 0,0 km/h (0 Bft) W-NW 301 ° 0 min 0,000 mm 0,0 UV-I 0 W/m² 12,3 °C 0,0 km/h (0 Bft) 87,50 %
01.09.2026 21:09 15,1 °C 0,0 °C 20,0 °C 19,0 °C 86 % 0 lf 33 cb 1019,1 hPa 0,0 mm 0,0 km/h (0 Bft) W-NW 301 ° 0 min 0,000 mm 0,0 UV-I 0 W/m² 12,8 °C 0,0 km/h (0 Bft) 100,00 %
01.09.2026 20:09 17,2 °C 0,0 °C 20,0 °C 19,0 °C 78 % 0 lf 33 cb 1018,9 hPa 0,0 mm 5,5 km/h (2 Bft) W-NW 302 ° 4 min 0,051 mm 0,0 UV-I 7 W/m² 13,3 °C 8,0 km/h (2 Bft) 91,67 %
01.09.2026 19:09 19,0 °C 0,0 °C 20,6 °C 19,0 °C 69 % 0 lf 32 cb 1018,6 hPa 0,0 mm 9,3 km/h (2 Bft) W 276 ° 60 min 0,153 mm 0,0 UV-I 106 W/m² 13,2 °C 14,5 km/h (3 Bft) 100,00 %
01.09.2026 18:09 20,2 °C 0,0 °C 21,1 °C 19,0 °C 64 % 0 lf 32 cb 1018,4 hPa 0,0 mm 8,1 km/h (2 Bft) W-SW 242 ° 51 min 0,228 mm 1,0 UV-I 242 W/m² 13,2 °C 11,3 km/h (2 Bft) 95,83 %
01.09.2026 17:09 20,4 °C 0,0 °C 21,7 °C 19,0 °C 66 % 0 lf 31 cb 1018,2 hPa 0,0 mm 12,5 km/h (2 Bft) W 265 ° 54 min 0,330 mm 1,3 UV-I 68 W/m² 13,8 °C 16,1 km/h (3 Bft) 95,83 %
01.09.2026 16:09 21,6 °C 0,0 °C 21,1 °C 18,4 °C 59 % 0 lf 30 cb 1018,2 hPa 0,0 mm 13,0 km/h (3 Bft) W 260 ° 51 min 0,381 mm 2,9 UV-I 547 W/m² 13,2 °C 22,5 km/h (4 Bft) 91,30 %
01.09.2026 15:09 21,7 °C 0,0 °C 20,6 °C 17,9 °C 64 % 0 lf 30 cb 1017,8 hPa 0,0 mm 11,3 km/h (2 Bft) W-NW 296 ° 46 min 0,407 mm 3,7 UV-I 702 W/m² 14,6 °C 16,1 km/h (3 Bft) 95,65 %
01.09.2026 14:09 21,8 °C 0,0 °C 19,4 °C 17,3 °C 68 % 0 lf 29 cb 1017,7 hPa 0,0 mm 9,5 km/h (2 Bft) NW 306 ° 48 min 0,381 mm 4,3 UV-I 799 W/m² 15,6 °C 17,7 km/h (3 Bft) 100,00 %
01.09.2026 13:09 20,2 °C 0,0 °C 18,3 °C 16,8 °C 77 % 0 lf 29 cb 1017,5 hPa 0,0 mm 9,0 km/h (2 Bft) SW 225 ° 27 min 0,228 mm 4,3 UV-I 809 W/m² 16,0 °C 14,5 km/h (3 Bft) 82,61 %
01.09.2026 12:09 17,4 °C 0,0 °C 17,2 °C 16,2 °C 93 % 15 lf 29 cb 1017,8 hPa 0,2 mm 4,0 km/h (1 Bft) SW 228 ° 0 min 0,077 mm 2,0 UV-I 210 W/m² 16,3 °C 6,4 km/h (2 Bft) 95,65 %
01.09.2026 11:09 17,7 °C 0,0 °C 17,2 °C 16,2 °C 91 % 0 lf 30 cb 1017,5 hPa 0,0 mm 5,7 km/h (2 Bft) SW 229 ° 4 min 0,101 mm 1,1 UV-I 131 W/m² 16,2 °C 8,0 km/h (2 Bft) 95,65 %
01.09.2026 10:09 16,7 °C 0,0 °C 16,7 °C 16,2 °C 94 % 0 lf 30 cb 1017,2 hPa 0,0 mm 6,1 km/h (2 Bft) W 266 ° 1 min 0,076 mm 0,9 UV-I 158 W/m² 15,7 °C 11,3 km/h (2 Bft) 95,65 %
01.09.2026 09:09 16,4 °C 0,0 °C 16,7 °C 16,2 °C 95 % 1 lf 30 cb 1016,5 hPa 0,0 mm 10,0 km/h (2 Bft) SW 232 ° 40 min 0,077 mm 0,8 UV-I 194 W/m² 15,6 °C 14,5 km/h (3 Bft) 100,00 %
01.09.2026 08:09 14,4 °C 0,0 °C 18,3 °C 17,9 °C 98 % 15 lf 36 cb 1016,3 hPa 0,0 mm 3,0 km/h (1 Bft) SW 226 ° 4 min 0,025 mm 0,0 UV-I 68 W/m² 14,1 °C 4,8 km/h (1 Bft) 100,00 %
01.09.2026 07:09 14,2 °C 0,0 °C 18,3 °C 17,9 °C 98 % 15 lf 36 cb 1015,7 hPa 0,0 mm 4,1 km/h (1 Bft) SW 226 ° 16 min 0,000 mm 0,0 UV-I 35 W/m² 13,9 °C 8,0 km/h (2 Bft) 95,83 %
01.09.2026 06:09 14,1 °C 0,0 °C 18,3 °C 17,9 °C 97 % 15 lf 36 cb 1015,4 hPa 0,0 mm 4,8 km/h (1 Bft) SW 232 ° 0 min 0,000 mm 0,0 UV-I 0 W/m² 13,6 °C 6,4 km/h (2 Bft) 100,00 %
01.09.2026 05:09 14,3 °C 0,0 °C 18,3 °C 17,9 °C 97 % 15 lf 36 cb 1014,9 hPa 0,0 mm 2,7 km/h (1 Bft) SW 234 ° 0 min 0,000 mm 0,0 UV-I 0 W/m² 13,8 °C 4,8 km/h (1 Bft) 95,83 %
01.09.2026 04:09 14,7 °C 0,0 °C 18,3 °C 17,9 °C 97 % 15 lf 36 cb 1015,0 hPa 0,0 mm 6,2 km/h (2 Bft) W-SW 254 ° 0 min 0,000 mm 0,0 UV-I 0 W/m² 14,2 °C 8,0 km/h (2 Bft) 95,65 %
01.09.2026 03:09 14,3 °C 0,0 °C 18,3 °C 17,9 °C 96 % 15 lf 36 cb 1014,7 hPa 0,0 mm 3,2 km/h (1 Bft) SW 234 ° 0 min 0,000 mm 0,0 UV-I 0 W/m² 13,7 °C 6,4 km/h (2 Bft) 95,83 %
01.09.2026 02:09 13,8 °C 0,0 °C 18,3 °C 17,9 °C 97 % 15 lf 36 cb 1014,5 hPa 0,0 mm 5,2 km/h (1 Bft) SW 230 ° 0 min 0,000 mm 0,0 UV-I 0 W/m² 13,3 °C 8,0 km/h (2 Bft) 100,00 %
01.09.2026 01:09 14,0 °C 0,0 °C 18,3 °C 17,9 °C 96 % 15 lf 36 cb 1014,3 hPa 0,0 mm 3,8 km/h (1 Bft) SW 226 ° 0 min 0,000 mm 0,0 UV-I 0 W/m² 13,4 °C 6,4 km/h (2 Bft) 100,00 %
01.09.2026 00:09 14,6 °C 0,0 °C 18,3 °C 17,9 °C 96 % 15 lf 36 cb 1014,2 hPa 0,2 mm 5,4 km/h (2 Bft) W-SW 240 ° 0 min 0,000 mm 0,0 UV-I 0 W/m² 14,0 °C 6,4 km/h (2 Bft) 100,00 %
01.09.2026 00:00 14,7 °C 0,0 °C 18,3 °C 17,9 °C 96 % 15 lf 36 cb 1014,1 hPa 0,0 mm 5,9 km/h (2 Bft) SW 221 ° 0 min 0,000 mm 0,0 UV-I 0 W/m² 14,1 °C 8,0 km/h (2 Bft) 91,67 %
_ Min-Zeit 23:11 23:11 10:15 12:42 16:18 23:11 14:42 00:59 - 23:11 - - - - - - 22:56 23:11 00:04
Minimum _ 13,1 °C 0,0 °C 16,7 °C 16,2 °C 57 % 0 lf 29 cb 1014,1 hPa - 0,0 km/h (0 Bft) - - - - - - 11,8 °C 0,0 km/h (0 Bft) 5,56 %
_ Max-Zeit 15:15 23:11 17:11 23:11 08:40 12:29 08:19 23:11 11:29 14:42 - - 19:16 15:03 13:52 13:55 12:41 15:31 23:08
Maximum _ 22,2 °C 0,0 °C 21,7 °C 19,0 °C 98 % 15 lf 36 cb 1019,5 hPa 0,2 mm 21,4 km/h
W-NW (4 Bft)
- - 1 min 0,407 mm 4,6 UV-I 882 W/m² 17,2 °C 29,0 km/h
W (5 Bft)
100,00 %
Durchschnitt _ 16,8 °C 0,0 °C 18,9 °C 17,8 °C 86 % 7 lf 33 cb 1016,9 hPa #0,4 mm 5,9 km/h (2 Bft) SW - #6:46 h #2,515 mm 1,9 UV-I 287 W/m² 14,1 °C 9,5 km/h (2 Bft) 96,46 %
© 2006-2026 Nordhorn-Wetter.com